sensor_id;sensor_type;location;lat;lon;timestamp;pressure;altitude;pressure_sealevel;temperature
13219;BMP180;6674;49.152;11.918;2022-12-11T00:00:37;95093.66;;;-0.53
13219;BMP180;6674;49.152;11.918;2022-12-11T00:03:04;95098.13;;;-0.86
13219;BMP180;6674;49.152;11.918;2022-12-11T00:05:32;95097.44;;;-0.57
13219;BMP180;6674;49.152;11.918;2022-12-11T00:07:59;95104.28;;;-0.88
13219;BMP180;6674;49.152;11.918;2022-12-11T00:10:26;95095.75;;;-0.87
13219;BMP180;6674;49.152;11.918;2022-12-11T00:12:52;95096.00;;;-0.74
13219;BMP180;6674;49.152;11.918;2022-12-11T00:15:19;95096.00;;;-0.74
13219;BMP180;6674;49.152;11.918;2022-12-11T00:17:46;95088.34;;;-0.66
13219;BMP180;6674;49.152;11.918;2022-12-11T00:20:12;95094.59;;;-0.54
13219;BMP180;6674;49.152;11.918;2022-12-11T00:22:41;95092.72;;;-0.83
13219;BMP180;6674;49.152;11.918;2022-12-11T00:25:08;95096.66;;;-0.80
13219;BMP180;6674;49.152;11.918;2022-12-11T00:27:34;95095.91;;;-0.58
13219;BMP180;6674;49.152;11.918;2022-12-11T00:30:01;95094.88;;;-0.49
13219;BMP180;6674;49.152;11.918;2022-12-11T00:32:28;95093.47;;;-0.52
13219;BMP180;6674;49.152;11.918;2022-12-11T00:34:56;95105.66;;;-0.55
13219;BMP180;6674;49.152;11.918;2022-12-11T00:37:22;95103.78;;;-0.53
13219;BMP180;6674;49.152;11.918;2022-12-11T00:39:50;95100.84;;;-0.65
13219;BMP180;6674;49.152;11.918;2022-12-11T00:42:17;95108.41;;;-0.43
13219;BMP180;6674;49.152;11.918;2022-12-11T00:44:44;95109.16;;;-0.34
13219;BMP180;6674;49.152;11.918;2022-12-11T00:47:10;95111.00;;;-0.28
13219;BMP180;6674;49.152;11.918;2022-12-11T00:49:37;95115.75;;;-0.25
13219;BMP180;6674;49.152;11.918;2022-12-11T00:52:04;95121.75;;;-0.26
13219;BMP180;6674;49.152;11.918;2022-12-11T00:54:33;95120.63;;;-0.24
13219;BMP180;6674;49.152;11.918;2022-12-11T00:57:01;95118.44;;;-0.27
13219;BMP180;6674;49.152;11.918;2022-12-11T00:59:28;95117.13;;;-0.23
13219;BMP180;6674;49.152;11.918;2022-12-11T01:01:54;95123.63;;;-0.20
13219;BMP180;6674;49.152;11.918;2022-12-11T01:04:21;95122.91;;;-0.29
13219;BMP180;6674;49.152;11.918;2022-12-11T01:06:48;95127.97;;;-0.29
13219;BMP180;6674;49.152;11.918;2022-12-11T01:09:14;95134.72;;;-0.43
13219;BMP180;6674;49.152;11.918;2022-12-11T01:11:58;95138.78;;;-0.35
13219;BMP180;6674;49.152;11.918;2022-12-11T01:14:26;95148.06;;;-0.49
13219;BMP180;6674;49.152;11.918;2022-12-11T01:16:53;95154.44;;;-0.53
13219;BMP180;6674;49.152;11.918;2022-12-11T01:19:20;95151.03;;;-0.46
13219;BMP180;6674;49.152;11.918;2022-12-11T01:21:46;95160.63;;;-0.34
13219;BMP180;6674;49.152;11.918;2022-12-11T01:24:13;95155.88;;;-0.37
13219;BMP180;6674;49.152;11.918;2022-12-11T01:26:40;95152.03;;;-0.77
13219;BMP180;6674;49.152;11.918;2022-12-11T01:29:06;95151.59;;;-0.58
13219;BMP180;6674;49.152;11.918;2022-12-11T01:31:34;95156.59;;;-0.50
13219;BMP180;6674;49.152;11.918;2022-12-11T01:34:02;95153.72;;;-0.47
13219;BMP180;6674;49.152;11.918;2022-12-11T01:36:28;95156.06;;;-0.68
13219;BMP180;6674;49.152;11.918;2022-12-11T01:38:55;95153.72;;;-0.70
13219;BMP180;6674;49.152;11.918;2022-12-11T01:41:22;95155.16;;;-0.75
13219;BMP180;6674;49.152;11.918;2022-12-11T01:43:56;95151.94;;;-0.61
13219;BMP180;6674;49.152;11.918;2022-12-11T01:46:23;95151.53;;;-0.50
13219;BMP180;6674;49.152;11.918;2022-12-11T01:48:52;95157.38;;;-0.42
13219;BMP180;6674;49.152;11.918;2022-12-11T01:51:20;95149.97;;;-0.51
13219;BMP180;6674;49.152;11.918;2022-12-11T01:53:51;95149.34;;;-0.53
13219;BMP180;6674;49.152;11.918;2022-12-11T01:56:19;95141.03;;;-0.40
13219;BMP180;6674;49.152;11.918;2022-12-11T01:58:48;95144.69;;;-0.42
13219;BMP180;6674;49.152;11.918;2022-12-11T02:01:21;95147.16;;;-0.56
13219;BMP180;6674;49.152;11.918;2022-12-11T02:03:52;95150.59;;;-0.49
13219;BMP180;6674;49.152;11.918;2022-12-11T02:06:31;95146.88;;;-0.61
13219;BMP180;6674;49.152;11.918;2022-12-11T02:08:58;95151.66;;;-0.66
13219;BMP180;6674;49.152;11.918;2022-12-11T02:11:30;95153.16;;;-0.57
13219;BMP180;6674;49.152;11.918;2022-12-11T02:14:04;95149.13;;;-0.44
13219;BMP180;6674;49.152;11.918;2022-12-11T02:16:38;95148.66;;;-0.47
13219;BMP180;6674;49.152;11.918;2022-12-11T02:19:18;95146.75;;;-0.45
13219;BMP180;6674;49.152;11.918;2022-12-11T02:21:49;95141.19;;;-0.41
13219;BMP180;6674;49.152;11.918;2022-12-11T02:24:46;95152.28;;;-0.42
13219;BMP180;6674;49.152;11.918;2022-12-11T02:27:25;95153.13;;;-0.49
13219;BMP180;6674;49.152;11.918;2022-12-11T02:30:00;95153.72;;;-0.47
13219;BMP180;6674;49.152;11.918;2022-12-11T02:32:32;95138.53;;;-0.47
13219;BMP180;6674;49.152;11.918;2022-12-11T02:35:06;95142.34;;;-0.74
13219;BMP180;6674;49.152;11.918;2022-12-11T02:37:35;95127.69;;;-0.86
13219;BMP180;6674;49.152;11.918;2022-12-11T02:40:05;95131.31;;;-0.81
13219;BMP180;6674;49.152;11.918;2022-12-11T02:42:34;95134.25;;;-0.69
13219;BMP180;6674;49.152;11.918;2022-12-11T02:45:06;95133.75;;;-0.65
13219;BMP180;6674;49.152;11.918;2022-12-11T02:47:35;95130.41;;;-0.65
13219;BMP180;6674;49.152;11.918;2022-12-11T02:50:08;95132.63;;;-0.62
13219;BMP180;6674;49.152;11.918;2022-12-11T02:52:36;95129.31;;;-0.63
13219;BMP180;6674;49.152;11.918;2022-12-11T02:55:06;95123.91;;;-0.60
13219;BMP180;6674;49.152;11.918;2022-12-11T02:57:38;95122.78;;;-0.57
13219;BMP180;6674;49.152;11.918;2022-12-11T03:00:10;95120.00;;;-0.70
13219;BMP180;6674;49.152;11.918;2022-12-11T03:02:37;95127.88;;;-0.65
13219;BMP180;6674;49.152;11.918;2022-12-11T03:05:05;95128.53;;;-0.63
13219;BMP180;6674;49.152;11.918;2022-12-11T03:07:36;95127.16;;;-0.74
13219;BMP180;6674;49.152;11.918;2022-12-11T03:10:05;95129.81;;;-0.97
13219;BMP180;6674;49.152;11.918;2022-12-11T03:12:34;95132.88;;;-1.10
13219;BMP180;6674;49.152;11.918;2022-12-11T03:15:04;95118.66;;;-1.11
13219;BMP180;6674;49.152;11.918;2022-12-11T03:17:35;95129.38;;;-1.09
13219;BMP180;6674;49.152;11.918;2022-12-11T03:20:10;95134.25;;;-0.99
13219;BMP180;6674;49.152;11.918;2022-12-11T03:22:40;95129.94;;;-0.91
13219;BMP180;6674;49.152;11.918;2022-12-11T03:25:11;95128.38;;;-0.92
13219;BMP180;6674;49.152;11.918;2022-12-11T03:27:44;95131.84;;;-0.93
13219;BMP180;6674;49.152;11.918;2022-12-11T03:30:15;95130.34;;;-1.10
13219;BMP180;6674;49.152;11.918;2022-12-11T03:32:47;95135.09;;;-1.07
13219;BMP180;6674;49.152;11.918;2022-12-11T03:35:18;95134.75;;;-1.04
13219;BMP180;6674;49.152;11.918;2022-12-11T03:37:47;95129.72;;;-1.04
13219;BMP180;6674;49.152;11.918;2022-12-11T03:40:16;95137.28;;;-1.04
13219;BMP180;6674;49.152;11.918;2022-12-11T03:42:47;95131.47;;;-1.12
13219;BMP180;6674;49.152;11.918;2022-12-11T03:45:15;95150.78;;;-1.19
13219;BMP180;6674;49.152;11.918;2022-12-11T03:47:45;95141.53;;;-1.34
13219;BMP180;6674;49.152;11.918;2022-12-11T03:50:15;95150.56;;;-1.48
13219;BMP180;6674;49.152;11.918;2022-12-11T03:52:45;95147.53;;;-1.43
13219;BMP180;6674;49.152;11.918;2022-12-11T03:55:14;95147.34;;;-1.26
13219;BMP180;6674;49.152;11.918;2022-12-11T03:57:42;95146.88;;;-1.29
13219;BMP180;6674;49.152;11.918;2022-12-11T04:00:11;95145.28;;;-1.23
13219;BMP180;6674;49.152;11.918;2022-12-11T04:02:39;95146.38;;;-1.25
13219;BMP180;6674;49.152;11.918;2022-12-11T04:05:08;95153.03;;;-1.24
13219;BMP180;6674;49.152;11.918;2022-12-11T04:07:35;95142.75;;;-1.23
13219;BMP180;6674;49.152;11.918;2022-12-11T04:10:02;95143.97;;;-1.19
13219;BMP180;6674;49.152;11.918;2022-12-11T04:12:29;95148.09;;;-1.18
13219;BMP180;6674;49.152;11.918;2022-12-11T04:14:56;95146.84;;;-1.22
13219;BMP180;6674;49.152;11.918;2022-12-11T04:17:27;95147.97;;;-1.24
13219;BMP180;6674;49.152;11.918;2022-12-11T04:20:13;95137.84;;;-1.24
13219;BMP180;6674;49.152;11.918;2022-12-11T04:22:57;95141.66;;;-1.28
13219;BMP180;6674;49.152;11.918;2022-12-11T04:25:41;95142.75;;;-1.30
13219;BMP180;6674;49.152;11.918;2022-12-11T04:28:08;95142.31;;;-1.34
13219;BMP180;6674;49.152;11.918;2022-12-11T04:30:35;95146.28;;;-1.39
13219;BMP180;6674;49.152;11.918;2022-12-11T04:33:02;95147.25;;;-1.48
13219;BMP180;6674;49.152;11.918;2022-12-11T04:35:30;95142.03;;;-1.47
13219;BMP180;6674;49.152;11.918;2022-12-11T04:37:57;95147.13;;;-1.63
13219;BMP180;6674;49.152;11.918;2022-12-11T04:40:24;95145.09;;;-1.75
13219;BMP180;6674;49.152;11.918;2022-12-11T04:42:50;95146.34;;;-1.79
13219;BMP180;6674;49.152;11.918;2022-12-11T04:45:17;95147.63;;;-1.75
13219;BMP180;6674;49.152;11.918;2022-12-11T04:47:44;95141.00;;;-1.92
13219;BMP180;6674;49.152;11.918;2022-12-11T04:50:12;95139.44;;;-1.93
13219;BMP180;6674;49.152;11.918;2022-12-11T04:52:41;95133.59;;;-1.93
13219;BMP180;6674;49.152;11.918;2022-12-11T04:55:08;95134.06;;;-1.90
13219;BMP180;6674;49.152;11.918;2022-12-11T04:57:35;95139.13;;;-1.90
13219;BMP180;6674;49.152;11.918;2022-12-11T05:00:03;95138.97;;;-1.96
13219;BMP180;6674;49.152;11.918;2022-12-11T05:02:33;95152.09;;;-2.01
13219;BMP180;6674;49.152;11.918;2022-12-11T05:05:00;95149.25;;;-2.06
13219;BMP180;6674;49.152;11.918;2022-12-11T05:07:27;95140.38;;;-2.02
13219;BMP180;6674;49.152;11.918;2022-12-11T05:09:55;95139.75;;;-2.04
13219;BMP180;6674;49.152;11.918;2022-12-11T05:12:22;95129.97;;;-1.99
13219;BMP180;6674;49.152;11.918;2022-12-11T05:14:50;95125.69;;;-1.98
13219;BMP180;6674;49.152;11.918;2022-12-11T05:17:17;95124.13;;;-1.99
13219;BMP180;6674;49.152;11.918;2022-12-11T05:19:46;95126.97;;;-1.94
13219;BMP180;6674;49.152;11.918;2022-12-11T05:22:14;95116.41;;;-1.98
13219;BMP180;6674;49.152;11.918;2022-12-11T05:24:40;95124.44;;;-2.10
13219;BMP180;6674;49.152;11.918;2022-12-11T05:27:08;95122.09;;;-2.04
13219;BMP180;6674;49.152;11.918;2022-12-11T05:29:35;95121.59;;;-1.99
13219;BMP180;6674;49.152;11.918;2022-12-11T05:32:02;95125.69;;;-1.98
13219;BMP180;6674;49.152;11.918;2022-12-11T05:34:29;95120.63;;;-1.98
13219;BMP180;6674;49.152;11.918;2022-12-11T05:36:56;95120.97;;;-2.01
13219;BMP180;6674;49.152;11.918;2022-12-11T05:39:22;95120.97;;;-2.01
13219;BMP180;6674;49.152;11.918;2022-12-11T05:41:49;95128.22;;;-1.98
13219;BMP180;6674;49.152;11.918;2022-12-11T05:44:17;95120.97;;;-2.01
13219;BMP180;6674;49.152;11.918;2022-12-11T05:46:44;95121.75;;;-2.01
13219;BMP180;6674;49.152;11.918;2022-12-11T05:49:10;95125.69;;;-1.98
13219;BMP180;6674;49.152;11.918;2022-12-11T05:51:37;95129.34;;;-1.93
13219;BMP180;6674;49.152;11.918;2022-12-11T05:54:05;95128.69;;;-1.95
13219;BMP180;6674;49.152;11.918;2022-12-11T05:56:33;95128.41;;;-2.08
13219;BMP180;6674;49.152;11.918;2022-12-11T05:59:01;95119.09;;;-2.15
13219;BMP180;6674;49.152;11.918;2022-12-11T06:01:31;95115.78;;;-2.08
13219;BMP180;6674;49.152;11.918;2022-12-11T06:03:59;95127.13;;;-2.04
13219;BMP180;6674;49.152;11.918;2022-12-11T06:06:26;95128.41;;;-2.08
13219;BMP180;6674;49.152;11.918;2022-12-11T06:08:55;95124.75;;;-2.21
13219;BMP180;6674;49.152;11.918;2022-12-11T06:11:22;95128.41;;;-2.15
13219;BMP180;6674;49.152;11.918;2022-12-11T06:13:49;95131.56;;;-2.14
13219;BMP180;6674;49.152;11.918;2022-12-11T06:16:16;95131.09;;;-2.17
13219;BMP180;6674;49.152;11.918;2022-12-11T06:18:44;95140.22;;;-2.24
13219;BMP180;6674;49.152;11.918;2022-12-11T06:21:13;95141.66;;;-2.29
13219;BMP180;6674;49.152;11.918;2022-12-11T06:23:40;95151.16;;;-2.23
13219;BMP180;6674;49.152;11.918;2022-12-11T06:26:07;95153.34;;;-2.28
13219;BMP180;6674;49.152;11.918;2022-12-11T06:28:34;95145.47;;;-2.33
13219;BMP180;6674;49.152;11.918;2022-12-11T06:31:01;95155.22;;;-2.46
13219;BMP180;6674;49.152;11.918;2022-12-11T06:33:27;95150.19;;;-2.46
13219;BMP180;6674;49.152;11.918;2022-12-11T06:35:56;95140.88;;;-2.38
13219;BMP180;6674;49.152;11.918;2022-12-11T06:38:26;95143.69;;;-2.57
13219;BMP180;6674;49.152;11.918;2022-12-11T06:40:57;95138.63;;;-2.57
13219;BMP180;6674;49.152;11.918;2022-12-11T06:43:24;95145.28;;;-2.48
13219;BMP180;6674;49.152;11.918;2022-12-11T06:45:51;95141.34;;;-2.34
13219;BMP180;6674;49.152;11.918;2022-12-11T06:48:18;95136.78;;;-2.23
13219;BMP180;6674;49.152;11.918;2022-12-11T06:50:45;95138.34;;;-2.22
13219;BMP180;6674;49.152;11.918;2022-12-11T06:53:14;95142.91;;;-2.17
13219;BMP180;6674;49.152;11.918;2022-12-11T06:55:41;95147.66;;;-2.15
13219;BMP180;6674;49.152;11.918;2022-12-11T06:58:08;95132.81;;;-2.10
13219;BMP180;6674;49.152;11.918;2022-12-11T07:00:35;95132.03;;;-2.10
13219;BMP180;6674;49.152;11.918;2022-12-11T07:03:02;95139.16;;;-2.06
13219;BMP180;6674;49.152;11.918;2022-12-11T07:05:30;95136.94;;;-2.01
13219;BMP180;6674;49.152;11.918;2022-12-11T07:07:57;95144.19;;;-1.98
13219;BMP180;6674;49.152;11.918;2022-12-11T07:10:25;95135.31;;;-1.94
13219;BMP180;6674;49.152;11.918;2022-12-11T07:12:51;95138.16;;;-1.89
13219;BMP180;6674;49.152;11.918;2022-12-11T07:15:18;95144.66;;;-1.86
13219;BMP180;6674;49.152;11.918;2022-12-11T07:17:45;95142.59;;;-1.91
13219;BMP180;6674;49.152;11.918;2022-12-11T07:20:13;95143.53;;;-1.84
13219;BMP180;6674;49.152;11.918;2022-12-11T07:22:40;95147.16;;;-1.78
13219;BMP180;6674;49.152;11.918;2022-12-11T07:25:07;95145.72;;;-1.73
13219;BMP180;6674;49.152;11.918;2022-12-11T07:27:35;95142.56;;;-1.67
13219;BMP180;6674;49.152;11.918;2022-12-11T07:30:03;95147.75;;;-1.61
13219;BMP180;6674;49.152;11.918;2022-12-11T07:32:29;95134.47;;;-1.55
13219;BMP180;6674;49.152;11.918;2022-12-11T07:34:56;95127.97;;;-1.49
13219;BMP180;6674;49.152;11.918;2022-12-11T07:37:22;95135.88;;;-1.44
13219;BMP180;6674;49.152;11.918;2022-12-11T07:39:49;95142.00;;;-1.39
13219;BMP180;6674;49.152;11.918;2022-12-11T07:42:16;95145.16;;;-1.37
13219;BMP180;6674;49.152;11.918;2022-12-11T07:44:44;95133.81;;;-1.49
13219;BMP180;6674;49.152;11.918;2022-12-11T07:47:11;95127.63;;;-1.46
13219;BMP180;6674;49.152;11.918;2022-12-11T07:49:37;95129.53;;;-1.48
13219;BMP180;6674;49.152;11.918;2022-12-11T07:52:04;95133.00;;;-1.49
13219;BMP180;6674;49.152;11.918;2022-12-11T07:54:31;95132.34;;;-1.35
13219;BMP180;6674;49.152;11.918;2022-12-11T07:56:57;95121.06;;;-1.25
13219;BMP180;6674;49.152;11.918;2022-12-11T07:59:25;95133.25;;;-1.29
13219;BMP180;6674;49.152;11.918;2022-12-11T08:01:53;95127.13;;;-1.34
13219;BMP180;6674;49.152;11.918;2022-12-11T08:04:19;95137.69;;;-1.23
13219;BMP180;6674;49.152;11.918;2022-12-11T08:06:46;95138.47;;;-1.22
13219;BMP180;6674;49.152;11.918;2022-12-11T08:09:13;95145.44;;;-1.32
13219;BMP180;6674;49.152;11.918;2022-12-11T08:11:40;95146.91;;;-1.37
13219;BMP180;6674;49.152;11.918;2022-12-11T08:14:07;95147.84;;;-1.38
13219;BMP180;6674;49.152;11.918;2022-12-11T08:16:33;95148.16;;;-1.33
13219;BMP180;6674;49.152;11.918;2022-12-11T08:19:02;95151.91;;;-1.22
13219;BMP180;6674;49.152;11.918;2022-12-11T08:21:28;95152.34;;;-1.10
13219;BMP180;6674;49.152;11.918;2022-12-11T08:23:55;95147.75;;;-1.07
13219;BMP180;6674;49.152;11.918;2022-12-11T08:26:23;95149.47;;;-1.07
13219;BMP180;6674;49.152;11.918;2022-12-11T08:28:51;95158.81;;;-1.08
13219;BMP180;6674;49.152;11.918;2022-12-11T08:31:18;95160.53;;;-1.00
13219;BMP180;6674;49.152;11.918;2022-12-11T08:33:45;95152.25;;;-0.94
13219;BMP180;6674;49.152;11.918;2022-12-11T08:36:15;95156.38;;;-0.93
13219;BMP180;6674;49.152;11.918;2022-12-11T08:38:42;95153.34;;;-0.89
13219;BMP180;6674;49.152;11.918;2022-12-11T08:41:13;95154.59;;;-0.85
13219;BMP180;6674;49.152;11.918;2022-12-11T08:43:40;95157.41;;;-0.80
13219;BMP180;6674;49.152;11.918;2022-12-11T08:46:07;95168.00;;;-0.77
13219;BMP180;6674;49.152;11.918;2022-12-11T08:48:35;95159.00;;;-0.79
13219;BMP180;6674;49.152;11.918;2022-12-11T08:51:04;95161.66;;;-0.73
13219;BMP180;6674;49.152;11.918;2022-12-11T08:53:32;95156.06;;;-0.68
13219;BMP180;6674;49.152;11.918;2022-12-11T08:56:00;95161.81;;;-0.74
13219;BMP180;6674;49.152;11.918;2022-12-11T08:58:28;95157.69;;;-0.75
13219;BMP180;6674;49.152;11.918;2022-12-11T09:00:55;95150.09;;;-0.75
13219;BMP180;6674;49.152;11.918;2022-12-11T09:03:22;95151.69;;;-0.74
13219;BMP180;6674;49.152;11.918;2022-12-11T09:05:48;95161.94;;;-0.68
13219;BMP180;6674;49.152;11.918;2022-12-11T09:08:15;95163.78;;;-0.62
13219;BMP180;6674;49.152;11.918;2022-12-11T09:10:43;95161.22;;;-0.54
13219;BMP180;6674;49.152;11.918;2022-12-11T09:13:10;95154.44;;;-0.53
13219;BMP180;6674;49.152;11.918;2022-12-11T09:15:39;95162.75;;;-0.45
13219;BMP180;6674;49.152;11.918;2022-12-11T09:18:05;95168.81;;;-0.54
13219;BMP180;6674;49.152;11.918;2022-12-11T09:20:32;95169.34;;;-0.58
13219;BMP180;6674;49.152;11.918;2022-12-11T09:23:00;95157.44;;;-0.58
13219;BMP180;6674;49.152;11.918;2022-12-11T09:25:27;95159.50;;;-0.53
13219;BMP180;6674;49.152;11.918;2022-12-11T09:27:55;95155.50;;;-0.48
13219;BMP180;6674;49.152;11.918;2022-12-11T09:30:22;95161.50;;;-0.49
13219;BMP180;6674;49.152;11.918;2022-12-11T09:32:49;95164.56;;;-0.53
13219;BMP180;6674;49.152;11.918;2022-12-11T09:35:15;95167.38;;;-0.48
13219;BMP180;6674;49.152;11.918;2022-12-11T09:37:42;95163.75;;;-0.54
13219;BMP180;6674;49.152;11.918;2022-12-11T09:40:10;95162.09;;;-0.69
13219;BMP180;6674;49.152;11.918;2022-12-11T09:42:46;95164.63;;;-0.69
13219;BMP180;6674;49.152;11.918;2022-12-11T09:45:16;95163.59;;;-0.83
13219;BMP180;6674;49.152;11.918;2022-12-11T09:47:44;95167.09;;;-0.84
13219;BMP180;6674;49.152;11.918;2022-12-11T09:50:17;95161.25;;;-0.84
13219;BMP180;6674;49.152;11.918;2022-12-11T09:52:55;95155.38;;;-0.85
13219;BMP180;6674;49.152;11.918;2022-12-11T09:55:30;95154.59;;;-0.85
13219;BMP180;6674;49.152;11.918;2022-12-11T09:58:05;95154.47;;;-0.91
13219;BMP180;6674;49.152;11.918;2022-12-11T10:00:39;95149.53;;;-0.85
13219;BMP180;6674;49.152;11.918;2022-12-11T10:03:32;95140.19;;;-0.85
13219;BMP180;6674;49.152;11.918;2022-12-11T10:06:11;95135.19;;;-0.70
13219;BMP180;6674;49.152;11.918;2022-12-11T10:08:44;95134.78;;;-0.51
13219;BMP180;6674;49.152;11.918;2022-12-11T10:11:36;95124.88;;;-0.39
13219;BMP180;6674;49.152;11.918;2022-12-11T10:14:09;95126.72;;;-0.33
13219;BMP180;6674;49.152;11.918;2022-12-11T10:16:43;95124.88;;;-0.39
13219;BMP180;6674;49.152;11.918;2022-12-11T10:19:16;95124.19;;;-0.33
13219;BMP180;6674;49.152;11.918;2022-12-11T10:21:44;95122.91;;;-0.51
13219;BMP180;6674;49.152;11.918;2022-12-11T10:24:17;95120.81;;;-0.47
13219;BMP180;6674;49.152;11.918;2022-12-11T10:26:52;95122.13;;;-0.51
13219;BMP180;6674;49.152;11.918;2022-12-11T10:29:22;95123.50;;;-0.49
13219;BMP180;6674;49.152;11.918;2022-12-11T10:31:53;95122.94;;;-0.59
13219;BMP180;6674;49.152;11.918;2022-12-11T10:34:27;95113.66;;;-0.66
13219;BMP180;6674;49.152;11.918;2022-12-11T10:36:58;95127.03;;;-0.80
13219;BMP180;6674;49.152;11.918;2022-12-11T10:39:25;95116.13;;;-0.81
13219;BMP180;6674;49.152;11.918;2022-12-11T10:41:53;95116.97;;;-1.18
13219;BMP180;6674;49.152;11.918;2022-12-11T10:44:22;95116.56;;;-0.77
13219;BMP180;6674;49.152;11.918;2022-12-11T10:47:03;95108.38;;;-0.79
13219;BMP180;6674;49.152;11.918;2022-12-11T10:49:31;95103.97;;;-0.85
13219;BMP180;6674;49.152;11.918;2022-12-11T10:51:59;95104.00;;;-0.93
13219;BMP180;6674;49.152;11.918;2022-12-11T10:54:30;95105.31;;;-0.97
13219;BMP180;6674;49.152;11.918;2022-12-11T10:56:59;95104.03;;;-1.01
13219;BMP180;6674;49.152;11.918;2022-12-11T10:59:33;95100.56;;;-1.00
13219;BMP180;6674;49.152;11.918;2022-12-11T11:02:04;95103.47;;;-1.11
13219;BMP180;6674;49.152;11.918;2022-12-11T11:04:34;95088.91;;;-1.09
13219;BMP180;6674;49.152;11.918;2022-12-11T11:07:10;95095.84;;;-1.03
13219;BMP180;6674;49.152;11.918;2022-12-11T11:09:38;95088.28;;;-1.11
13219;BMP180;6674;49.152;11.918;2022-12-11T11:12:17;95084.16;;;-1.04
13219;BMP180;6674;49.152;11.918;2022-12-11T11:14:44;95081.63;;;-1.04
13219;BMP180;6674;49.152;11.918;2022-12-11T11:17:14;95081.91;;;-0.99
13219;BMP180;6674;49.152;11.918;2022-12-11T11:19:45;95079.72;;;-1.02
13219;BMP180;6674;49.152;11.918;2022-12-11T11:22:14;95080.56;;;-0.87
13219;BMP180;6674;49.152;11.918;2022-12-11T11:24:44;95068.44;;;-0.69
13219;BMP180;6674;49.152;11.918;2022-12-11T11:27:13;95074.56;;;-0.64
13219;BMP180;6674;49.152;11.918;2022-12-11T11:29:44;95062.59;;;-0.70
13219;BMP180;6674;49.152;11.918;2022-12-11T11:32:18;95063.25;;;-0.76
13219;BMP180;6674;49.152;11.918;2022-12-11T11:34:45;95060.28;;;-0.79
13219;BMP180;6674;49.152;11.918;2022-12-11T11:37:27;95050.63;;;-0.84
13219;BMP180;6674;49.152;11.918;2022-12-11T11:40:05;95043.00;;;-0.76
13219;BMP180;6674;49.152;11.918;2022-12-11T11:42:42;95034.34;;;-0.81
13219;BMP180;6674;49.152;11.918;2022-12-11T11:45:14;95028.13;;;-0.79
13219;BMP180;6674;49.152;11.918;2022-12-11T11:47:49;95017.78;;;-0.69
13219;BMP180;6674;49.152;11.918;2022-12-11T11:50:24;95021.72;;;-0.67
13219;BMP180;6674;49.152;11.918;2022-12-11T11:52:59;95023.81;;;-0.70
13219;BMP180;6674;49.152;11.918;2022-12-11T11:55:35;95020.59;;;-0.64
13219;BMP180;6674;49.152;11.918;2022-12-11T11:58:07;95018.50;;;-0.83
13219;BMP180;6674;49.152;11.918;2022-12-11T12:00:35;95028.69;;;-0.91
13219;BMP180;6674;49.152;11.918;2022-12-11T12:03:08;95031.31;;;-0.99
13219;BMP180;6674;49.152;11.918;2022-12-11T12:05:44;95031.09;;;-0.97
13219;BMP180;6674;49.152;11.918;2022-12-11T12:08:13;95024.78;;;-0.93
13219;BMP180;6674;49.152;11.918;2022-12-11T12:10:47;95026.25;;;-0.99
13219;BMP180;6674;49.152;11.918;2022-12-11T12:13:20;95021.19;;;-0.99
13219;BMP180;6674;49.152;11.918;2022-12-11T12:15:54;95017.50;;;-0.96
13219;BMP180;6674;49.152;11.918;2022-12-11T12:18:31;95019.88;;;-0.95
13219;BMP180;6674;49.152;11.918;2022-12-11T12:21:08;95013.16;;;-0.88
13219;BMP180;6674;49.152;11.918;2022-12-11T12:23:55;95018.34;;;-0.82
13219;BMP180;6674;49.152;11.918;2022-12-11T12:26:28;95015.88;;;-0.67
13219;BMP180;6674;49.152;11.918;2022-12-11T12:29:02;95015.03;;;-0.60
13219;BMP180;6674;49.152;11.918;2022-12-11T12:31:45;95008.81;;;-0.57
13219;BMP180;6674;49.152;11.918;2022-12-11T12:34:25;95017.50;;;-0.74
13219;BMP180;6674;49.152;11.918;2022-12-11T12:36:57;95010.06;;;-0.53
13219;BMP180;6674;49.152;11.918;2022-12-11T12:39:38;95010.69;;;-0.51
13219;BMP180;6674;49.152;11.918;2022-12-11T12:42:16;95014.44;;;-0.47
13219;BMP180;6674;49.152;11.918;2022-12-11T12:44:56;95011.47;;;-0.51
13219;BMP180;6674;49.152;11.918;2022-12-11T12:47:26;95018.47;;;-0.75
13219;BMP180;6674;49.152;11.918;2022-12-11T12:49:58;95011.41;;;-0.65
13219;BMP180;6674;49.152;11.918;2022-12-11T12:52:29;95009.16;;;-0.60
13219;BMP180;6674;49.152;11.918;2022-12-11T12:54:59;95002.47;;;-0.53
13219;BMP180;6674;49.152;11.918;2022-12-11T12:57:43;95004.38;;;-0.55
13219;BMP180;6674;49.152;11.918;2022-12-11T13:00:10;95014.38;;;-0.62
13219;BMP180;6674;49.152;11.918;2022-12-11T13:02:46;95007.44;;;-0.82
13219;BMP180;6674;49.152;11.918;2022-12-11T13:05:20;95000.63;;;-0.82
13219;BMP180;6674;49.152;11.918;2022-12-11T13:07:49;95001.34;;;-0.73
13219;BMP180;6674;49.152;11.918;2022-12-11T13:10:29;95003.16;;;-0.59
13219;BMP180;6674;49.152;11.918;2022-12-11T13:12:57;94999.09;;;-0.68
13219;BMP180;6674;49.152;11.918;2022-12-11T13:15:30;94994.78;;;-0.82
13219;BMP180;6674;49.152;11.918;2022-12-11T13:18:00;94995.41;;;-1.02
13219;BMP180;6674;49.152;11.918;2022-12-11T13:20:29;95001.25;;;-1.02
13219;BMP180;6674;49.152;11.918;2022-12-11T13:23:18;95001.94;;;-0.86
13219;BMP180;6674;49.152;11.918;2022-12-11T13:25:49;94992.03;;;-1.17
13219;BMP180;6674;49.152;11.918;2022-12-11T13:28:25;95006.31;;;-0.80
13219;BMP180;6674;49.152;11.918;2022-12-11T13:31:06;95000.34;;;-0.87
13219;BMP180;6674;49.152;11.918;2022-12-11T13:33:49;95009.78;;;-0.58
13219;BMP180;6674;49.152;11.918;2022-12-11T13:36:29;95005.13;;;-0.69
13219;BMP180;6674;49.152;11.918;2022-12-11T13:39:00;95014.50;;;-0.55
13219;BMP180;6674;49.152;11.918;2022-12-11T13:41:29;95008.00;;;-0.72
13219;BMP180;6674;49.152;11.918;2022-12-11T13:43:57;95002.66;;;-0.77
13219;BMP180;6674;49.152;11.918;2022-12-11T13:46:27;95007.00;;;-0.63
13219;BMP180;6674;49.152;11.918;2022-12-11T13:48:55;95008.59;;;-0.70
13219;BMP180;6674;49.152;11.918;2022-12-11T13:51:28;94999.69;;;-0.81
13219;BMP180;6674;49.152;11.918;2022-12-11T13:54:13;95020.00;;;-0.66
13219;BMP180;6674;49.152;11.918;2022-12-11T13:56:52;95019.88;;;-0.73
13219;BMP180;6674;49.152;11.918;2022-12-11T13:59:24;95020.50;;;-0.71
13219;BMP180;6674;49.152;11.918;2022-12-11T14:01:52;95023.56;;;-0.83
13219;BMP180;6674;49.152;11.918;2022-12-11T14:04:20;95027.81;;;-0.76
13219;BMP180;6674;49.152;11.918;2022-12-11T14:06:49;95030.19;;;-0.74
13219;BMP180;6674;49.152;11.918;2022-12-11T14:09:18;95026.09;;;-0.83
13219;BMP180;6674;49.152;11.918;2022-12-11T14:11:46;95022.06;;;-0.92
13219;BMP180;6674;49.152;11.918;2022-12-11T14:14:18;95025.81;;;-0.88
13219;BMP180;6674;49.152;11.918;2022-12-11T14:16:46;95013.88;;;-0.94
13219;BMP180;6674;49.152;11.918;2022-12-11T14:19:16;95021.69;;;-0.81
13219;BMP180;6674;49.152;11.918;2022-12-11T14:21:55;95012.94;;;-1.01
13219;BMP180;6674;49.152;11.918;2022-12-11T14:24:22;95014.53;;;-1.00